Flugplatz Lüneburg

Für EDHG sind keine METAR/TAF Berichte vorhanden.
Es werden die Flugwettermeldungen vom Flugplatz Fassberg Airport in 40 km Entfernung angezeigt.

Bericht für ETHS

vom 07.08. um 17:20 UTC

Wind 7 kt aus 80°

Sichtweite 10 km oder mehr

gering bewölkt in 7000 ft

Temperatur 30.0°C

Taupunkt 13.0°C

Luftfeuchtigkeit 35%

Luftdruck 1020 hPa

ETHS 071720Z 08007KT 9999 FEW070 30/13 Q1020 BLU+
Keine Prognose (TAF) verfügbar.
Impressum